sensor_id;sensor_type;location;lat;lon;timestamp;P1;durP1;ratioP1;P2;durP2;ratioP2
9783;SDS011;4931;44.874;-1.092;2022-08-06T00:03:13;4.30;;;1.55;;
9783;SDS011;4931;44.874;-1.092;2022-08-06T00:08:05;4.45;;;1.60;;
9783;SDS011;4931;44.874;-1.092;2022-08-06T00:12:50;2.88;;;1.50;;
9783;SDS011;4931;44.874;-1.092;2022-08-06T00:17:36;3.15;;;1.50;;
9783;SDS011;4931;44.874;-1.092;2022-08-06T00:22:22;3.83;;;1.40;;
9783;SDS011;4931;44.874;-1.092;2022-08-06T00:27:12;5.07;;;1.70;;
9783;SDS011;4931;44.874;-1.092;2022-08-06T00:32:09;4.25;;;1.60;;
9783;SDS011;4931;44.874;-1.092;2022-08-06T00:37:04;5.00;;;1.65;;
9783;SDS011;4931;44.874;-1.092;2022-08-06T00:41:59;7.03;;;1.33;;
9783;SDS011;4931;44.874;-1.092;2022-08-06T00:46:51;6.45;;;1.50;;
9783;SDS011;4931;44.874;-1.092;2022-08-06T00:51:37;3.15;;;1.38;;
9783;SDS011;4931;44.874;-1.092;2022-08-06T00:56:32;4.00;;;1.60;;
9783;SDS011;4931;44.874;-1.092;2022-08-06T01:01:18;5.10;;;1.38;;
9783;SDS011;4931;44.874;-1.092;2022-08-06T01:06:06;3.60;;;1.50;;
9783;SDS011;4931;44.874;-1.092;2022-08-06T01:11:12;4.65;;;1.52;;
9783;SDS011;4931;44.874;-1.092;2022-08-06T01:16:00;3.63;;;1.40;;
9783;SDS011;4931;44.874;-1.092;2022-08-06T01:20:56;5.93;;;1.55;;
9783;SDS011;4931;44.874;-1.092;2022-08-06T01:26:27;3.28;;;1.38;;
9783;SDS011;4931;44.874;-1.092;2022-08-06T01:31:24;5.63;;;1.52;;
9783;SDS011;4931;44.874;-1.092;2022-08-06T01:36:20;5.43;;;1.60;;
9783;SDS011;4931;44.874;-1.092;2022-08-06T01:41:13;4.25;;;1.55;;
9783;SDS011;4931;44.874;-1.092;2022-08-06T01:46:44;5.30;;;1.50;;
9783;SDS011;4931;44.874;-1.092;2022-08-06T01:51:31;3.53;;;1.30;;
9783;SDS011;4931;44.874;-1.092;2022-08-06T01:56:39;5.45;;;1.80;;
9783;SDS011;4931;44.874;-1.092;2022-08-06T02:01:39;2.88;;;1.40;;
9783;SDS011;4931;44.874;-1.092;2022-08-06T02:06:35;3.65;;;1.75;;
9783;SDS011;4931;44.874;-1.092;2022-08-06T02:11:30;5.22;;;1.70;;
9783;SDS011;4931;44.874;-1.092;2022-08-06T02:16:39;5.85;;;1.80;;
9783;SDS011;4931;44.874;-1.092;2022-08-06T02:21:29;4.82;;;1.40;;
9783;SDS011;4931;44.874;-1.092;2022-08-06T02:26:17;4.20;;;1.65;;
9783;SDS011;4931;44.874;-1.092;2022-08-06T02:31:05;5.90;;;2.20;;
9783;SDS011;4931;44.874;-1.092;2022-08-06T02:35:57;5.63;;;1.70;;
9783;SDS011;4931;44.874;-1.092;2022-08-06T02:41:03;6.72;;;1.60;;
9783;SDS011;4931;44.874;-1.092;2022-08-06T02:45:57;6.15;;;1.67;;
9783;SDS011;4931;44.874;-1.092;2022-08-06T02:50:46;5.53;;;1.90;;
9783;SDS011;4931;44.874;-1.092;2022-08-06T02:55:38;6.35;;;2.05;;
9783;SDS011;4931;44.874;-1.092;2022-08-06T03:00:27;5.75;;;2.08;;
9783;SDS011;4931;44.874;-1.092;2022-08-06T03:05:14;8.57;;;1.83;;
9783;SDS011;4931;44.874;-1.092;2022-08-06T03:10:23;3.33;;;1.92;;
9783;SDS011;4931;44.874;-1.092;2022-08-06T03:15:13;3.53;;;1.77;;
9783;SDS011;4931;44.874;-1.092;2022-08-06T03:20:22;6.80;;;1.80;;
9783;SDS011;4931;44.874;-1.092;2022-08-06T03:25:10;4.47;;;2.10;;
9783;SDS011;4931;44.874;-1.092;2022-08-06T03:29:58;6.50;;;2.10;;
9783;SDS011;4931;44.874;-1.092;2022-08-06T03:34:46;7.10;;;1.80;;
9783;SDS011;4931;44.874;-1.092;2022-08-06T03:39:33;3.92;;;1.90;;
9783;SDS011;4931;44.874;-1.092;2022-08-06T03:44:22;7.32;;;2.10;;
9783;SDS011;4931;44.874;-1.092;2022-08-06T03:49:10;6.15;;;1.80;;
9783;SDS011;4931;44.874;-1.092;2022-08-06T03:54:24;7.18;;;2.38;;
9783;SDS011;4931;44.874;-1.092;2022-08-06T03:59:14;4.43;;;2.03;;
9783;SDS011;4931;44.874;-1.092;2022-08-06T04:04:02;7.05;;;2.28;;
9783;SDS011;4931;44.874;-1.092;2022-08-06T04:09:08;7.57;;;2.20;;
9783;SDS011;4931;44.874;-1.092;2022-08-06T04:14:00;4.65;;;1.92;;
9783;SDS011;4931;44.874;-1.092;2022-08-06T04:18:49;4.75;;;2.15;;
9783;SDS011;4931;44.874;-1.092;2022-08-06T04:23:40;5.38;;;2.05;;
9783;SDS011;4931;44.874;-1.092;2022-08-06T04:28:26;7.38;;;2.40;;
9783;SDS011;4931;44.874;-1.092;2022-08-06T04:33:17;7.00;;;2.33;;
9783;SDS011;4931;44.874;-1.092;2022-08-06T04:38:16;7.10;;;2.08;;
9783;SDS011;4931;44.874;-1.092;2022-08-06T04:43:11;6.18;;;2.20;;
9783;SDS011;4931;44.874;-1.092;2022-08-06T04:47:57;9.68;;;2.50;;
9783;SDS011;4931;44.874;-1.092;2022-08-06T04:52:46;6.20;;;2.30;;
9783;SDS011;4931;44.874;-1.092;2022-08-06T04:57:33;8.43;;;2.30;;
9783;SDS011;4931;44.874;-1.092;2022-08-06T05:02:38;8.38;;;2.20;;
9783;SDS011;4931;44.874;-1.092;2022-08-06T05:07:32;8.43;;;2.40;;
9783;SDS011;4931;44.874;-1.092;2022-08-06T05:12:44;3.88;;;2.08;;
9783;SDS011;4931;44.874;-1.092;2022-08-06T05:17:35;6.78;;;2.13;;
9783;SDS011;4931;44.874;-1.092;2022-08-06T05:22:29;8.20;;;2.30;;
9783;SDS011;4931;44.874;-1.092;2022-08-06T05:27:35;5.30;;;1.90;;
9783;SDS011;4931;44.874;-1.092;2022-08-06T05:32:45;5.07;;;2.25;;
9783;SDS011;4931;44.874;-1.092;2022-08-06T05:37:37;5.60;;;2.60;;
9783;SDS011;4931;44.874;-1.092;2022-08-06T05:42:42;4.75;;;2.35;;
9783;SDS011;4931;44.874;-1.092;2022-08-06T05:47:39;7.95;;;2.42;;
9783;SDS011;4931;44.874;-1.092;2022-08-06T05:52:40;6.72;;;2.30;;
9783;SDS011;4931;44.874;-1.092;2022-08-06T05:57:33;7.82;;;2.70;;
9783;SDS011;4931;44.874;-1.092;2022-08-06T06:02:34;4.50;;;2.25;;
9783;SDS011;4931;44.874;-1.092;2022-08-06T06:07:21;6.57;;;2.17;;
9783;SDS011;4931;44.874;-1.092;2022-08-06T06:12:30;4.88;;;2.40;;
9783;SDS011;4931;44.874;-1.092;2022-08-06T06:17:23;9.65;;;2.58;;
9783;SDS011;4931;44.874;-1.092;2022-08-06T06:22:21;5.15;;;2.40;;
9783;SDS011;4931;44.874;-1.092;2022-08-06T06:27:16;7.00;;;2.20;;
9783;SDS011;4931;44.874;-1.092;2022-08-06T06:32:32;4.28;;;2.40;;
9783;SDS011;4931;44.874;-1.092;2022-08-06T06:37:27;5.40;;;2.30;;
9783;SDS011;4931;44.874;-1.092;2022-08-06T06:42:23;6.88;;;2.35;;
9783;SDS011;4931;44.874;-1.092;2022-08-06T06:52:17;4.55;;;2.13;;
9783;SDS011;4931;44.874;-1.092;2022-08-06T06:57:13;8.30;;;2.63;;
9783;SDS011;4931;44.874;-1.092;2022-08-06T07:02:24;6.43;;;2.30;;
9783;SDS011;4931;44.874;-1.092;2022-08-06T07:07:17;4.80;;;2.00;;
9783;SDS011;4931;44.874;-1.092;2022-08-06T07:12:05;4.63;;;2.08;;
9783;SDS011;4931;44.874;-1.092;2022-08-06T07:17:01;4.65;;;2.10;;
9783;SDS011;4931;44.874;-1.092;2022-08-06T07:22:08;6.22;;;2.10;;
9783;SDS011;4931;44.874;-1.092;2022-08-06T07:27:00;7.50;;;2.45;;
9783;SDS011;4931;44.874;-1.092;2022-08-06T07:31:47;3.17;;;2.22;;
9783;SDS011;4931;44.874;-1.092;2022-08-06T07:36:35;4.15;;;2.30;;
9783;SDS011;4931;44.874;-1.092;2022-08-06T07:41:36;5.40;;;2.42;;
9783;SDS011;4931;44.874;-1.092;2022-08-06T07:46:45;8.82;;;2.60;;
9783;SDS011;4931;44.874;-1.092;2022-08-06T07:51:34;5.32;;;2.30;;
9783;SDS011;4931;44.874;-1.092;2022-08-06T07:56:25;9.30;;;2.58;;
9783;SDS011;4931;44.874;-1.092;2022-08-06T08:01:12;7.07;;;2.30;;
9783;SDS011;4931;44.874;-1.092;2022-08-06T08:06:03;6.13;;;2.55;;
9783;SDS011;4931;44.874;-1.092;2022-08-06T08:11:06;6.15;;;2.25;;
9783;SDS011;4931;44.874;-1.092;2022-08-06T08:15:54;6.45;;;2.55;;
9783;SDS011;4931;44.874;-1.092;2022-08-06T08:20:41;5.82;;;2.50;;
9783;SDS011;4931;44.874;-1.092;2022-08-06T08:25:37;5.60;;;2.72;;
9783;SDS011;4931;44.874;-1.092;2022-08-06T08:30:26;4.93;;;2.50;;
9783;SDS011;4931;44.874;-1.092;2022-08-06T08:35:14;10.25;;;2.53;;
9783;SDS011;4931;44.874;-1.092;2022-08-06T08:40:00;7.22;;;2.47;;
9783;SDS011;4931;44.874;-1.092;2022-08-06T08:44:48;5.40;;;2.58;;
9783;SDS011;4931;44.874;-1.092;2022-08-06T08:49:35;9.18;;;2.60;;
9783;SDS011;4931;44.874;-1.092;2022-08-06T08:54:27;4.20;;;2.38;;
9783;SDS011;4931;44.874;-1.092;2022-08-06T08:59:16;4.25;;;2.40;;
9783;SDS011;4931;44.874;-1.092;2022-08-06T09:04:26;6.28;;;2.30;;
9783;SDS011;4931;44.874;-1.092;2022-08-06T09:09:12;5.18;;;2.22;;
9783;SDS011;4931;44.874;-1.092;2022-08-06T09:13:59;4.18;;;2.80;;
9783;SDS011;4931;44.874;-1.092;2022-08-06T09:18:49;5.57;;;2.50;;
9783;SDS011;4931;44.874;-1.092;2022-08-06T09:23:39;5.63;;;2.45;;
9783;SDS011;4931;44.874;-1.092;2022-08-06T09:28:39;4.88;;;2.30;;
9783;SDS011;4931;44.874;-1.092;2022-08-06T09:33:29;4.70;;;2.33;;
9783;SDS011;4931;44.874;-1.092;2022-08-06T09:38:47;5.32;;;2.40;;
9783;SDS011;4931;44.874;-1.092;2022-08-06T09:43:37;5.00;;;2.57;;
9783;SDS011;4931;44.874;-1.092;2022-08-06T09:48:56;5.78;;;2.30;;
9783;SDS011;4931;44.874;-1.092;2022-08-06T09:54:06;5.70;;;2.20;;
9783;SDS011;4931;44.874;-1.092;2022-08-06T09:59:06;5.57;;;2.47;;
9783;SDS011;4931;44.874;-1.092;2022-08-06T10:03:53;4.60;;;2.33;;
9783;SDS011;4931;44.874;-1.092;2022-08-06T10:08:50;3.88;;;2.40;;
9783;SDS011;4931;44.874;-1.092;2022-08-06T10:14:20;10.45;;;2.63;;
9783;SDS011;4931;44.874;-1.092;2022-08-06T10:19:09;3.58;;;2.10;;
9783;SDS011;4931;44.874;-1.092;2022-08-06T10:24:01;8.40;;;2.58;;
9783;SDS011;4931;44.874;-1.092;2022-08-06T10:28:51;6.57;;;2.22;;
9783;SDS011;4931;44.874;-1.092;2022-08-06T10:33:39;3.40;;;2.08;;
9783;SDS011;4931;44.874;-1.092;2022-08-06T10:38:37;3.88;;;2.40;;
9783;SDS011;4931;44.874;-1.092;2022-08-06T10:43:34;5.13;;;2.40;;
9783;SDS011;4931;44.874;-1.092;2022-08-06T10:48:28;3.75;;;2.20;;
9783;SDS011;4931;44.874;-1.092;2022-08-06T10:53:34;3.78;;;2.08;;
9783;SDS011;4931;44.874;-1.092;2022-08-06T10:58:41;4.72;;;2.58;;
9783;SDS011;4931;44.874;-1.092;2022-08-06T11:03:33;4.68;;;2.10;;
9783;SDS011;4931;44.874;-1.092;2022-08-06T11:08:33;6.35;;;2.33;;
9783;SDS011;4931;44.874;-1.092;2022-08-06T11:13:40;4.45;;;2.38;;
9783;SDS011;4931;44.874;-1.092;2022-08-06T11:23:56;3.40;;;2.33;;
9783;SDS011;4931;44.874;-1.092;2022-08-06T11:28:57;4.05;;;2.42;;
9783;SDS011;4931;44.874;-1.092;2022-08-06T11:34:03;4.75;;;2.38;;
9783;SDS011;4931;44.874;-1.092;2022-08-06T11:38:58;4.28;;;2.33;;
9783;SDS011;4931;44.874;-1.092;2022-08-06T11:44:04;4.30;;;2.30;;
9783;SDS011;4931;44.874;-1.092;2022-08-06T11:54:14;4.63;;;2.20;;
9783;SDS011;4931;44.874;-1.092;2022-08-06T11:59:12;6.03;;;2.30;;
9783;SDS011;4931;44.874;-1.092;2022-08-06T12:03:59;7.87;;;2.33;;
9783;SDS011;4931;44.874;-1.092;2022-08-06T12:08:58;5.00;;;2.47;;
9783;SDS011;4931;44.874;-1.092;2022-08-06T12:13:55;5.38;;;2.15;;
9783;SDS011;4931;44.874;-1.092;2022-08-06T12:19:02;5.07;;;2.30;;
9783;SDS011;4931;44.874;-1.092;2022-08-06T12:23:49;8.32;;;2.65;;
9783;SDS011;4931;44.874;-1.092;2022-08-06T12:28:40;5.07;;;2.35;;
9783;SDS011;4931;44.874;-1.092;2022-08-06T12:33:26;4.40;;;2.28;;
9783;SDS011;4931;44.874;-1.092;2022-08-06T12:38:13;4.85;;;2.90;;
9783;SDS011;4931;44.874;-1.092;2022-08-06T12:43:08;4.47;;;2.33;;
9783;SDS011;4931;44.874;-1.092;2022-08-06T12:48:12;3.85;;;2.72;;
9783;SDS011;4931;44.874;-1.092;2022-08-06T12:53:01;6.03;;;2.45;;
9783;SDS011;4931;44.874;-1.092;2022-08-06T12:57:52;5.50;;;2.65;;
9783;SDS011;4931;44.874;-1.092;2022-08-06T13:02:44;4.40;;;2.50;;
9783;SDS011;4931;44.874;-1.092;2022-08-06T13:07:32;3.05;;;2.20;;
9783;SDS011;4931;44.874;-1.092;2022-08-06T13:12:24;4.97;;;2.30;;
9783;SDS011;4931;44.874;-1.092;2022-08-06T13:17:30;6.07;;;2.38;;
9783;SDS011;4931;44.874;-1.092;2022-08-06T13:22:51;4.45;;;2.30;;
9783;SDS011;4931;44.874;-1.092;2022-08-06T13:27:37;4.82;;;2.97;;
9783;SDS011;4931;44.874;-1.092;2022-08-06T13:32:36;3.90;;;2.13;;
9783;SDS011;4931;44.874;-1.092;2022-08-06T13:37:45;6.53;;;2.20;;
9783;SDS011;4931;44.874;-1.092;2022-08-06T13:42:52;5.90;;;2.35;;
9783;SDS011;4931;44.874;-1.092;2022-08-06T13:47:38;4.32;;;2.22;;
9783;SDS011;4931;44.874;-1.092;2022-08-06T13:52:39;5.57;;;2.10;;
9783;SDS011;4931;44.874;-1.092;2022-08-06T13:57:25;6.28;;;2.50;;
9783;SDS011;4931;44.874;-1.092;2022-08-06T14:02:27;4.40;;;1.80;;
9783;SDS011;4931;44.874;-1.092;2022-08-06T14:07:15;3.65;;;1.75;;
9783;SDS011;4931;44.874;-1.092;2022-08-06T14:12:01;3.08;;;2.00;;
9783;SDS011;4931;44.874;-1.092;2022-08-06T14:16:49;4.55;;;2.00;;
9783;SDS011;4931;44.874;-1.092;2022-08-06T14:21:38;5.97;;;2.40;;
9783;SDS011;4931;44.874;-1.092;2022-08-06T14:26:28;5.25;;;1.92;;
9783;SDS011;4931;44.874;-1.092;2022-08-06T14:31:15;5.57;;;2.08;;
9783;SDS011;4931;44.874;-1.092;2022-08-06T14:36:03;5.07;;;2.05;;
9783;SDS011;4931;44.874;-1.092;2022-08-06T14:40:52;3.65;;;1.90;;
9783;SDS011;4931;44.874;-1.092;2022-08-06T14:45:51;6.57;;;1.70;;
9783;SDS011;4931;44.874;-1.092;2022-08-06T14:50:36;3.20;;;1.80;;
9783;SDS011;4931;44.874;-1.092;2022-08-06T14:55:25;6.22;;;2.33;;
9783;SDS011;4931;44.874;-1.092;2022-08-06T15:00:14;5.00;;;1.70;;
9783;SDS011;4931;44.874;-1.092;2022-08-06T15:05:07;4.47;;;1.80;;
9783;SDS011;4931;44.874;-1.092;2022-08-06T15:10:13;6.43;;;1.90;;
9783;SDS011;4931;44.874;-1.092;2022-08-06T15:15:08;3.90;;;1.40;;
9783;SDS011;4931;44.874;-1.092;2022-08-06T15:19:58;3.65;;;1.88;;
9783;SDS011;4931;44.874;-1.092;2022-08-06T15:24:43;3.03;;;1.65;;
9783;SDS011;4931;44.874;-1.092;2022-08-06T15:29:28;6.03;;;1.70;;
9783;SDS011;4931;44.874;-1.092;2022-08-06T15:34:15;5.85;;;1.92;;
9783;SDS011;4931;44.874;-1.092;2022-08-06T15:39:11;4.18;;;1.60;;
9783;SDS011;4931;44.874;-1.092;2022-08-06T15:44:02;6.03;;;1.60;;
9783;SDS011;4931;44.874;-1.092;2022-08-06T15:48:48;4.15;;;1.67;;
9783;SDS011;4931;44.874;-1.092;2022-08-06T15:53:36;4.40;;;1.65;;
9783;SDS011;4931;44.874;-1.092;2022-08-06T15:58:26;4.13;;;1.90;;
9783;SDS011;4931;44.874;-1.092;2022-08-06T16:03:11;7.18;;;1.85;;
9783;SDS011;4931;44.874;-1.092;2022-08-06T16:07:57;3.53;;;1.65;;
9783;SDS011;4931;44.874;-1.092;2022-08-06T16:12:45;4.57;;;1.70;;
9783;SDS011;4931;44.874;-1.092;2022-08-06T16:17:35;6.93;;;1.75;;
9783;SDS011;4931;44.874;-1.092;2022-08-06T16:22:41;4.18;;;1.80;;
9783;SDS011;4931;44.874;-1.092;2022-08-06T16:27:26;3.72;;;1.60;;
9783;SDS011;4931;44.874;-1.092;2022-08-06T16:32:19;4.07;;;1.60;;
9783;SDS011;4931;44.874;-1.092;2022-08-06T16:37:09;2.90;;;1.50;;
9783;SDS011;4931;44.874;-1.092;2022-08-06T16:42:15;4.80;;;1.80;;
9783;SDS011;4931;44.874;-1.092;2022-08-06T16:47:00;2.78;;;1.58;;
9783;SDS011;4931;44.874;-1.092;2022-08-06T16:51:47;3.63;;;1.50;;
9783;SDS011;4931;44.874;-1.092;2022-08-06T16:56:55;20.95;;;2.30;;
9783;SDS011;4931;44.874;-1.092;2022-08-06T17:01:40;17.38;;;1.88;;
9783;SDS011;4931;44.874;-1.092;2022-08-06T17:06:59;15.10;;;2.08;;
9783;SDS011;4931;44.874;-1.092;2022-08-06T17:11:47;5.20;;;1.70;;
9783;SDS011;4931;44.874;-1.092;2022-08-06T17:16:44;3.60;;;1.75;;
9783;SDS011;4931;44.874;-1.092;2022-08-06T17:21:33;3.33;;;1.60;;
9783;SDS011;4931;44.874;-1.092;2022-08-06T17:26:38;4.40;;;1.55;;
9783;SDS011;4931;44.874;-1.092;2022-08-06T17:31:48;4.25;;;1.52;;
9783;SDS011;4931;44.874;-1.092;2022-08-06T17:36:39;5.78;;;1.60;;
9783;SDS011;4931;44.874;-1.092;2022-08-06T17:41:32;11.60;;;1.83;;
9783;SDS011;4931;44.874;-1.092;2022-08-06T17:46:27;26.27;;;2.38;;
9783;SDS011;4931;44.874;-1.092;2022-08-06T17:51:21;4.30;;;1.25;;
9783;SDS011;4931;44.874;-1.092;2022-08-06T17:56:14;9.00;;;1.65;;
9783;SDS011;4931;44.874;-1.092;2022-08-06T18:01:12;4.63;;;1.50;;
9783;SDS011;4931;44.874;-1.092;2022-08-06T18:06:21;15.15;;;2.25;;
9783;SDS011;4931;44.874;-1.092;2022-08-06T18:11:10;1.63;;;1.23;;
9783;SDS011;4931;44.874;-1.092;2022-08-06T18:15:56;5.82;;;1.50;;
9783;SDS011;4931;44.874;-1.092;2022-08-06T18:20:42;4.32;;;1.58;;
9783;SDS011;4931;44.874;-1.092;2022-08-06T18:25:32;5.53;;;1.58;;
9783;SDS011;4931;44.874;-1.092;2022-08-06T18:30:38;3.42;;;1.58;;
9783;SDS011;4931;44.874;-1.092;2022-08-06T18:35:28;3.83;;;1.73;;
9783;SDS011;4931;44.874;-1.092;2022-08-06T18:40:37;4.85;;;1.73;;
9783;SDS011;4931;44.874;-1.092;2022-08-06T18:45:38;4.55;;;2.13;;
9783;SDS011;4931;44.874;-1.092;2022-08-06T18:50:40;4.10;;;1.80;;
9783;SDS011;4931;44.874;-1.092;2022-08-06T18:55:26;10.32;;;1.70;;
9783;SDS011;4931;44.874;-1.092;2022-08-06T19:00:34;6.15;;;1.70;;
9783;SDS011;4931;44.874;-1.092;2022-08-06T19:05:22;4.17;;;1.50;;
9783;SDS011;4931;44.874;-1.092;2022-08-06T19:10:10;4.22;;;1.40;;
9783;SDS011;4931;44.874;-1.092;2022-08-06T19:14:55;6.93;;;1.52;;
9783;SDS011;4931;44.874;-1.092;2022-08-06T19:19:44;5.20;;;1.50;;
9783;SDS011;4931;44.874;-1.092;2022-08-06T19:24:52;6.23;;;2.20;;
9783;SDS011;4931;44.874;-1.092;2022-08-06T19:29:41;4.53;;;2.35;;
9783;SDS011;4931;44.874;-1.092;2022-08-06T19:34:46;6.43;;;2.40;;
9783;SDS011;4931;44.874;-1.092;2022-08-06T19:39:33;3.13;;;2.10;;
9783;SDS011;4931;44.874;-1.092;2022-08-06T19:44:39;4.00;;;1.70;;
9783;SDS011;4931;44.874;-1.092;2022-08-06T19:49:47;9.85;;;3.50;;
9783;SDS011;4931;44.874;-1.092;2022-08-06T19:54:33;48.33;;;3.78;;
9783;SDS011;4931;44.874;-1.092;2022-08-06T19:59:23;5.13;;;2.40;;
9783;SDS011;4931;44.874;-1.092;2022-08-06T20:04:28;7.85;;;3.47;;
9783;SDS011;4931;44.874;-1.092;2022-08-06T20:09:16;9.98;;;5.70;;
9783;SDS011;4931;44.874;-1.092;2022-08-06T20:14:10;15.05;;;4.28;;
9783;SDS011;4931;44.874;-1.092;2022-08-06T20:18:56;9.88;;;4.20;;
9783;SDS011;4931;44.874;-1.092;2022-08-06T20:23:42;6.93;;;1.92;;
9783;SDS011;4931;44.874;-1.092;2022-08-06T20:28:36;6.13;;;1.60;;
9783;SDS011;4931;44.874;-1.092;2022-08-06T20:33:42;6.25;;;1.77;;
9783;SDS011;4931;44.874;-1.092;2022-08-06T20:38:40;3.65;;;2.00;;
9783;SDS011;4931;44.874;-1.092;2022-08-06T20:43:26;3.55;;;2.15;;
9783;SDS011;4931;44.874;-1.092;2022-08-06T20:48:34;7.07;;;1.73;;
9783;SDS011;4931;44.874;-1.092;2022-08-06T20:53:19;4.32;;;1.60;;
9783;SDS011;4931;44.874;-1.092;2022-08-06T20:58:13;4.20;;;1.75;;
9783;SDS011;4931;44.874;-1.092;2022-08-06T21:02:58;6.47;;;2.58;;
9783;SDS011;4931;44.874;-1.092;2022-08-06T21:08:06;5.72;;;1.75;;
9783;SDS011;4931;44.874;-1.092;2022-08-06T21:12:52;6.72;;;1.95;;
9783;SDS011;4931;44.874;-1.092;2022-08-06T21:17:43;5.28;;;1.60;;
9783;SDS011;4931;44.874;-1.092;2022-08-06T21:22:36;3.08;;;1.60;;
9783;SDS011;4931;44.874;-1.092;2022-08-06T21:27:26;4.38;;;1.73;;
9783;SDS011;4931;44.874;-1.092;2022-08-06T21:32:19;5.22;;;1.88;;
9783;SDS011;4931;44.874;-1.092;2022-08-06T21:37:17;3.47;;;1.42;;
9783;SDS011;4931;44.874;-1.092;2022-08-06T21:42:26;4.38;;;1.58;;
9783;SDS011;4931;44.874;-1.092;2022-08-06T21:47:11;5.10;;;1.80;;
9783;SDS011;4931;44.874;-1.092;2022-08-06T21:52:00;4.57;;;1.70;;
9783;SDS011;4931;44.874;-1.092;2022-08-06T21:56:47;4.35;;;1.45;;
9783;SDS011;4931;44.874;-1.092;2022-08-06T22:01:35;4.25;;;1.60;;
9783;SDS011;4931;44.874;-1.092;2022-08-06T22:06:40;3.67;;;1.50;;
9783;SDS011;4931;44.874;-1.092;2022-08-06T22:11:34;5.28;;;1.70;;
9783;SDS011;4931;44.874;-1.092;2022-08-06T22:16:42;2.75;;;1.45;;
9783;SDS011;4931;44.874;-1.092;2022-08-06T22:21:35;4.93;;;1.55;;
9783;SDS011;4931;44.874;-1.092;2022-08-06T22:26:31;3.83;;;1.40;;
9783;SDS011;4931;44.874;-1.092;2022-08-06T22:31:17;4.93;;;1.65;;
9783;SDS011;4931;44.874;-1.092;2022-08-06T22:36:13;5.47;;;1.73;;
9783;SDS011;4931;44.874;-1.092;2022-08-06T22:41:15;3.55;;;1.60;;
9783;SDS011;4931;44.874;-1.092;2022-08-06T22:46:21;4.57;;;1.60;;
9783;SDS011;4931;44.874;-1.092;2022-08-06T22:51:07;2.60;;;1.50;;
9783;SDS011;4931;44.874;-1.092;2022-08-06T22:56:11;4.40;;;1.80;;
9783;SDS011;4931;44.874;-1.092;2022-08-06T23:00:57;2.63;;;1.50;;
9783;SDS011;4931;44.874;-1.092;2022-08-06T23:06:02;3.97;;;1.52;;
9783;SDS011;4931;44.874;-1.092;2022-08-06T23:10:49;5.03;;;1.55;;
9783;SDS011;4931;44.874;-1.092;2022-08-06T23:15:38;2.65;;;1.50;;
9783;SDS011;4931;44.874;-1.092;2022-08-06T23:20:29;4.78;;;1.60;;
9783;SDS011;4931;44.874;-1.092;2022-08-06T23:25:16;2.75;;;1.50;;
9783;SDS011;4931;44.874;-1.092;2022-08-06T23:30:21;4.13;;;1.52;;
9783;SDS011;4931;44.874;-1.092;2022-08-06T23:35:09;6.15;;;1.60;;
9783;SDS011;4931;44.874;-1.092;2022-08-06T23:40:15;2.35;;;1.40;;
9783;SDS011;4931;44.874;-1.092;2022-08-06T23:45:00;4.22;;;1.40;;
9783;SDS011;4931;44.874;-1.092;2022-08-06T23:49:47;2.08;;;1.60;;
9783;SDS011;4931;44.874;-1.092;2022-08-06T23:54:34;5.53;;;1.80;;
9783;SDS011;4931;44.874;-1.092;2022-08-06T23:59:20;4.70;;;1.70;;
